sensor_id;sensor_type;location;lat;lon;timestamp;pressure;altitude;pressure_sealevel;temperature;humidity
51147;BME280;37207;53.060;18.726;2022-07-29T00:23:14;101301.00;;;14.65;72.84
51147;BME280;37207;53.060;18.726;2022-07-29T00:34:23;101306.69;;;14.62;73.16
51147;BME280;37207;53.060;18.726;2022-07-29T00:37:54;101311.20;;;14.63;73.24
51147;BME280;37207;53.060;18.726;2022-07-29T01:18:34;101307.48;;;14.49;73.40
51147;BME280;37207;53.060;18.726;2022-07-29T01:42:49;101309.25;;;14.39;73.76
51147;BME280;37207;53.060;18.726;2022-07-29T01:49:56;101308.37;;;14.41;73.94
51147;BME280;37207;53.060;18.726;2022-07-29T02:24:21;101300.65;;;14.11;74.97
51147;BME280;37207;53.060;18.726;2022-07-29T04:33:14;101293.95;;;14.83;77.27
51147;BME280;37207;53.060;18.726;2022-07-29T04:54:47;101313.00;;;15.44;77.38
51147;BME280;37207;53.060;18.726;2022-07-29T05:26:01;101316.40;;;15.96;76.55
51147;BME280;37207;53.060;18.726;2022-07-29T06:39:11;101304.85;;;18.54;71.51
51147;BME280;37207;53.060;18.726;2022-07-29T07:07:55;101299.15;;;20.10;67.90
51147;BME280;37207;53.060;18.726;2022-07-29T07:33:29;101293.20;;;22.16;63.21
51147;BME280;37207;53.060;18.726;2022-07-29T07:47:48;101296.36;;;23.35;59.18
51147;BME280;37207;53.060;18.726;2022-07-29T07:51:30;101293.98;;;23.61;58.01
51147;BME280;37207;53.060;18.726;2022-07-29T07:58:22;101295.23;;;24.03;55.91
51147;BME280;37207;53.060;18.726;2022-07-29T08:01:34;101295.97;;;24.09;54.51
51147;BME280;37207;53.060;18.726;2022-07-29T08:05:04;101299.83;;;24.34;55.65
51147;BME280;37207;53.060;18.726;2022-07-29T08:08:33;101297.83;;;24.65;54.67
51147;BME280;37207;53.060;18.726;2022-07-29T08:12:02;101294.31;;;24.96;54.75
51147;BME280;37207;53.060;18.726;2022-07-29T08:15:49;101289.21;;;25.26;53.69
51147;BME280;37207;53.060;18.726;2022-07-29T08:18:49;101292.18;;;25.43;52.04
51147;BME280;37207;53.060;18.726;2022-07-29T08:22:06;101289.02;;;25.53;50.23
51147;BME280;37207;53.060;18.726;2022-07-29T08:25:57;101286.30;;;25.56;50.76
51147;BME280;37207;53.060;18.726;2022-07-29T08:29:45;101290.67;;;25.81;51.17
51147;BME280;37207;53.060;18.726;2022-07-29T08:32:53;101293.09;;;26.00;50.23
51147;BME280;37207;53.060;18.726;2022-07-29T08:43:05;101286.29;;;26.90;49.38
51147;BME280;37207;53.060;18.726;2022-07-29T08:46:17;101292.41;;;27.12;48.21
51147;BME280;37207;53.060;18.726;2022-07-29T08:49:37;101292.03;;;27.33;47.73
51147;BME280;37207;53.060;18.726;2022-07-29T08:52:44;101292.13;;;27.60;47.32
51147;BME280;37207;53.060;18.726;2022-07-29T08:59:05;101292.43;;;28.27;45.85
51147;BME280;37207;53.060;18.726;2022-07-29T09:02:47;101294.46;;;28.45;44.31
51147;BME280;37207;53.060;18.726;2022-07-29T09:13:11;101295.36;;;28.36;42.84
51147;BME280;37207;53.060;18.726;2022-07-29T09:16:55;101290.66;;;28.40;42.51
51147;BME280;37207;53.060;18.726;2022-07-29T09:19:29;101288.85;;;28.39;43.09
51147;BME280;37207;53.060;18.726;2022-07-29T09:21:59;101287.69;;;28.42;42.36
51147;BME280;37207;53.060;18.726;2022-07-29T09:27:18;101277.27;;;28.62;41.44
51147;BME280;37207;53.060;18.726;2022-07-29T09:30:08;101283.27;;;28.99;40.84
51147;BME280;37207;53.060;18.726;2022-07-29T09:32:58;101283.08;;;29.18;39.91
51147;BME280;37207;53.060;18.726;2022-07-29T09:35:30;101278.20;;;29.22;39.85
51147;BME280;37207;53.060;18.726;2022-07-29T09:38:09;101274.98;;;29.26;39.64
51147;BME280;37207;53.060;18.726;2022-07-29T09:40:41;101275.37;;;29.42;39.72
51147;BME280;37207;53.060;18.726;2022-07-29T09:43:13;101274.96;;;29.79;39.68
51147;BME280;37207;53.060;18.726;2022-07-29T09:45:40;101266.27;;;30.20;39.31
51147;BME280;37207;53.060;18.726;2022-07-29T09:48:16;101265.43;;;30.67;38.70
51147;BME280;37207;53.060;18.726;2022-07-29T09:50:47;101258.52;;;30.97;37.48
51147;BME280;37207;53.060;18.726;2022-07-29T09:59:57;101265.61;;;30.87;36.10
51147;BME280;37207;53.060;18.726;2022-07-29T10:02:35;101263.19;;;30.63;35.73
51147;BME280;37207;53.060;18.726;2022-07-29T10:05:15;101262.67;;;30.24;35.46
51147;BME280;37207;53.060;18.726;2022-07-29T10:07:52;101263.55;;;29.91;35.32
51147;BME280;37207;53.060;18.726;2022-07-29T10:10:26;101264.73;;;29.67;36.41
51147;BME280;37207;53.060;18.726;2022-07-29T10:12:58;101262.09;;;29.55;36.62
51147;BME280;37207;53.060;18.726;2022-07-29T10:15:30;101255.25;;;29.47;36.66
51147;BME280;37207;53.060;18.726;2022-07-29T10:18:13;101251.48;;;29.26;35.97
51147;BME280;37207;53.060;18.726;2022-07-29T10:20:53;101254.00;;;29.05;36.30
51147;BME280;37207;53.060;18.726;2022-07-29T10:23:23;101253.34;;;28.81;36.02
51147;BME280;37207;53.060;18.726;2022-07-29T10:25:54;101251.98;;;28.55;35.96
51147;BME280;37207;53.060;18.726;2022-07-29T10:28:21;101251.30;;;28.34;36.91
51147;BME280;37207;53.060;18.726;2022-07-29T10:31:06;101252.52;;;28.17;36.82
51147;BME280;37207;53.060;18.726;2022-07-29T10:34:07;101246.19;;;27.95;36.97
51147;BME280;37207;53.060;18.726;2022-07-29T10:37:12;101240.27;;;27.86;37.41
51147;BME280;37207;53.060;18.726;2022-07-29T10:40:12;101238.75;;;27.83;37.72
51147;BME280;37207;53.060;18.726;2022-07-29T10:43:27;101238.94;;;27.86;37.74
51147;BME280;37207;53.060;18.726;2022-07-29T10:46:06;101239.84;;;27.86;37.13
51147;BME280;37207;53.060;18.726;2022-07-29T10:49:23;101236.58;;;27.92;37.76
51147;BME280;37207;53.060;18.726;2022-07-29T10:52:09;101239.93;;;27.98;37.60
51147;BME280;37207;53.060;18.726;2022-07-29T10:54:42;101238.73;;;27.98;37.46
51147;BME280;37207;53.060;18.726;2022-07-29T10:57:37;101236.89;;;27.92;37.19
51147;BME280;37207;53.060;18.726;2022-07-29T11:02:45;101233.08;;;28.19;37.41
51147;BME280;37207;53.060;18.726;2022-07-29T11:05:20;101235.11;;;28.48;37.40
51147;BME280;37207;53.060;18.726;2022-07-29T11:10:40;101227.40;;;28.82;36.22
51147;BME280;37207;53.060;18.726;2022-07-29T11:13:07;101226.48;;;28.89;36.05
51147;BME280;37207;53.060;18.726;2022-07-29T11:16:02;101223.19;;;28.98;36.33
51147;BME280;37207;53.060;18.726;2022-07-29T11:18:32;101228.56;;;29.04;36.26
51147;BME280;37207;53.060;18.726;2022-07-29T11:21:38;101236.24;;;29.18;35.22
51147;BME280;37207;53.060;18.726;2022-07-29T11:24:43;101235.85;;;29.30;34.88
51147;BME280;37207;53.060;18.726;2022-07-29T11:27:31;101237.03;;;29.35;34.80
51147;BME280;37207;53.060;18.726;2022-07-29T11:30:11;101231.67;;;29.39;34.91
51147;BME280;37207;53.060;18.726;2022-07-29T11:33:04;101233.38;;;29.50;35.33
51147;BME280;37207;53.060;18.726;2022-07-29T11:36:08;101230.76;;;29.67;35.52
51147;BME280;37207;53.060;18.726;2022-07-29T11:38:39;101228.00;;;29.83;35.10
51147;BME280;37207;53.060;18.726;2022-07-29T11:41:20;101222.29;;;29.72;35.03
51147;BME280;37207;53.060;18.726;2022-07-29T11:44:05;101224.88;;;29.55;34.91
51147;BME280;37207;53.060;18.726;2022-07-29T11:46:50;101227.01;;;29.32;35.25
51147;BME280;37207;53.060;18.726;2022-07-29T11:49:55;101226.98;;;29.22;35.62
51147;BME280;37207;53.060;18.726;2022-07-29T11:52:51;101225.29;;;29.16;35.94
51147;BME280;37207;53.060;18.726;2022-07-29T11:55:28;101219.29;;;29.03;35.68
51147;BME280;37207;53.060;18.726;2022-07-29T11:58:00;101217.23;;;28.91;35.26
51147;BME280;37207;53.060;18.726;2022-07-29T12:00:33;101218.52;;;28.77;35.42
51147;BME280;37207;53.060;18.726;2022-07-29T12:03:05;101222.27;;;28.68;35.17
51147;BME280;37207;53.060;18.726;2022-07-29T12:05:49;101224.27;;;28.70;35.33
51147;BME280;37207;53.060;18.726;2022-07-29T12:08:20;101219.48;;;28.79;35.30
51147;BME280;37207;53.060;18.726;2022-07-29T12:10:49;101216.27;;;28.76;34.93
51147;BME280;37207;53.060;18.726;2022-07-29T12:13:38;101217.95;;;28.77;35.25
51147;BME280;37207;53.060;18.726;2022-07-29T12:17:08;101213.69;;;28.85;35.14
51147;BME280;37207;53.060;18.726;2022-07-29T12:19:48;101211.33;;;28.84;34.55
51147;BME280;37207;53.060;18.726;2022-07-29T12:22:25;101204.94;;;28.70;33.42
51147;BME280;37207;53.060;18.726;2022-07-29T12:24:56;101205.33;;;28.52;33.97
51147;BME280;37207;53.060;18.726;2022-07-29T12:27:31;101205.83;;;28.42;33.44
51147;BME280;37207;53.060;18.726;2022-07-29T12:30:05;101201.02;;;28.28;33.95
51147;BME280;37207;53.060;18.726;2022-07-29T12:32:42;101194.73;;;28.24;34.20
51147;BME280;37207;53.060;18.726;2022-07-29T12:35:16;101196.52;;;28.29;34.30
51147;BME280;37207;53.060;18.726;2022-07-29T12:37:48;101198.71;;;28.28;33.68
51147;BME280;37207;53.060;18.726;2022-07-29T12:40:21;101198.92;;;28.24;34.25
51147;BME280;37207;53.060;18.726;2022-07-29T12:43:13;101197.89;;;28.25;34.60
51147;BME280;37207;53.060;18.726;2022-07-29T12:45:44;101195.17;;;28.28;34.66
51147;BME280;37207;53.060;18.726;2022-07-29T12:48:14;101195.45;;;28.30;33.94
51147;BME280;37207;53.060;18.726;2022-07-29T12:51:00;101190.96;;;28.27;33.64
51147;BME280;37207;53.060;18.726;2022-07-29T12:53:30;101190.77;;;28.24;34.21
51147;BME280;37207;53.060;18.726;2022-07-29T12:55:59;101186.65;;;28.38;34.91
51147;BME280;37207;53.060;18.726;2022-07-29T12:58:35;101188.56;;;28.68;35.03
51147;BME280;37207;53.060;18.726;2022-07-29T13:03:48;101186.12;;;29.62;34.52
51147;BME280;37207;53.060;18.726;2022-07-29T13:06:39;101184.74;;;30.26;33.69
51147;BME280;37207;53.060;18.726;2022-07-29T13:11:44;101176.92;;;31.40;32.60
51147;BME280;37207;53.060;18.726;2022-07-29T13:14:14;101186.20;;;31.85;31.69
51147;BME280;37207;53.060;18.726;2022-07-29T13:17:11;101178.77;;;32.01;30.87
51147;BME280;37207;53.060;18.726;2022-07-29T13:19:45;101175.35;;;32.19;30.18
51147;BME280;37207;53.060;18.726;2022-07-29T13:22:47;101171.59;;;32.30;30.54
51147;BME280;37207;53.060;18.726;2022-07-29T13:25:27;101169.27;;;32.50;29.40
51147;BME280;37207;53.060;18.726;2022-07-29T13:27:56;101168.86;;;32.53;29.42
51147;BME280;37207;53.060;18.726;2022-07-29T13:30:23;101159.73;;;32.23;29.12
51147;BME280;37207;53.060;18.726;2022-07-29T13:32:52;101165.69;;;31.98;29.21
51147;BME280;37207;53.060;18.726;2022-07-29T13:38:25;101162.41;;;31.55;29.62
51147;BME280;37207;53.060;18.726;2022-07-29T13:44:41;101151.44;;;31.25;29.27
51147;BME280;37207;53.060;18.726;2022-07-29T13:51:06;101152.55;;;30.60;29.72
51147;BME280;37207;53.060;18.726;2022-07-29T13:53:35;101155.06;;;30.47;29.72
51147;BME280;37207;53.060;18.726;2022-07-29T13:56:06;101149.04;;;30.20;28.87
51147;BME280;37207;53.060;18.726;2022-07-29T13:58:34;101148.27;;;30.10;29.68
51147;BME280;37207;53.060;18.726;2022-07-29T14:01:01;101146.15;;;29.98;29.45
51147;BME280;37207;53.060;18.726;2022-07-29T14:03:29;101142.72;;;29.94;29.67
51147;BME280;37207;53.060;18.726;2022-07-29T14:05:57;101140.05;;;30.00;30.09
51147;BME280;37207;53.060;18.726;2022-07-29T14:08:26;101134.86;;;30.15;30.01
51147;BME280;37207;53.060;18.726;2022-07-29T14:10:54;101131.23;;;30.14;29.27
51147;BME280;37207;53.060;18.726;2022-07-29T14:13:21;101130.02;;;30.12;29.96
51147;BME280;37207;53.060;18.726;2022-07-29T14:15:49;101129.92;;;30.20;30.03
51147;BME280;37207;53.060;18.726;2022-07-29T14:18:17;101129.24;;;30.27;29.71
51147;BME280;37207;53.060;18.726;2022-07-29T14:20:44;101122.84;;;30.27;30.01
51147;BME280;37207;53.060;18.726;2022-07-29T14:23:12;101120.36;;;30.31;29.84
51147;BME280;37207;53.060;18.726;2022-07-29T14:25:40;101118.27;;;30.31;30.14
51147;BME280;37207;53.060;18.726;2022-07-29T14:28:10;101111.91;;;30.34;30.11
51147;BME280;37207;53.060;18.726;2022-07-29T14:31:10;101114.10;;;30.39;29.52
51147;BME280;37207;53.060;18.726;2022-07-29T14:33:38;101111.93;;;30.33;28.73
51147;BME280;37207;53.060;18.726;2022-07-29T14:37:18;101108.77;;;30.23;28.45
51147;BME280;37207;53.060;18.726;2022-07-29T14:40:14;101100.20;;;30.14;28.38
51147;BME280;37207;53.060;18.726;2022-07-29T14:47:13;101104.51;;;30.05;29.38
51147;BME280;37207;53.060;18.726;2022-07-29T14:50:16;101102.05;;;29.88;29.98
51147;BME280;37207;53.060;18.726;2022-07-29T14:53:37;101092.16;;;29.70;30.31
51147;BME280;37207;53.060;18.726;2022-07-29T14:56:04;101093.92;;;29.56;30.04
51147;BME280;37207;53.060;18.726;2022-07-29T14:59:45;101093.80;;;29.46;30.27
51147;BME280;37207;53.060;18.726;2022-07-29T15:02:24;101087.52;;;29.41;30.38
51147;BME280;37207;53.060;18.726;2022-07-29T15:05:15;101073.94;;;29.26;30.66
51147;BME280;37207;53.060;18.726;2022-07-29T15:08:28;101083.94;;;29.14;31.12
51147;BME280;37207;53.060;18.726;2022-07-29T15:11:19;101077.09;;;29.12;30.77
51147;BME280;37207;53.060;18.726;2022-07-29T15:14:14;101070.46;;;29.04;31.06
51147;BME280;37207;53.060;18.726;2022-07-29T15:17:02;101073.92;;;28.99;30.83
51147;BME280;37207;53.060;18.726;2022-07-29T15:19:49;101072.86;;;28.84;31.06
51147;BME280;37207;53.060;18.726;2022-07-29T15:23:51;101070.38;;;28.61;31.62
51147;BME280;37207;53.060;18.726;2022-07-29T15:27:08;101075.96;;;28.27;31.80
51147;BME280;37207;53.060;18.726;2022-07-29T15:29:55;101071.38;;;28.12;31.83
51147;BME280;37207;53.060;18.726;2022-07-29T15:33:03;101070.95;;;28.01;31.84
51147;BME280;37207;53.060;18.726;2022-07-29T15:36:01;101066.15;;;27.97;31.60
51147;BME280;37207;53.060;18.726;2022-07-29T15:38:59;101062.16;;;27.79;30.80
51147;BME280;37207;53.060;18.726;2022-07-29T15:42:11;101064.08;;;27.42;31.15
51147;BME280;37207;53.060;18.726;2022-07-29T15:46:17;101062.48;;;27.17;31.80
51147;BME280;37207;53.060;18.726;2022-07-29T15:56:08;101055.13;;;26.87;33.08
51147;BME280;37207;53.060;18.726;2022-07-29T15:59:25;101045.34;;;26.94;33.44
51147;BME280;37207;53.060;18.726;2022-07-29T16:03:01;101039.36;;;27.06;33.39
51147;BME280;37207;53.060;18.726;2022-07-29T16:06:09;101041.38;;;27.20;33.35
51147;BME280;37207;53.060;18.726;2022-07-29T16:08:39;101037.89;;;27.26;33.46
51147;BME280;37207;53.060;18.726;2022-07-29T16:11:10;101031.95;;;27.34;33.47
51147;BME280;37207;53.060;18.726;2022-07-29T16:13:59;101032.69;;;27.36;33.14
51147;BME280;37207;53.060;18.726;2022-07-29T16:16:27;101034.98;;;27.36;32.54
51147;BME280;37207;53.060;18.726;2022-07-29T16:18:57;101033.77;;;27.31;32.25
51147;BME280;37207;53.060;18.726;2022-07-29T16:21:45;101030.81;;;27.28;32.52
51147;BME280;37207;53.060;18.726;2022-07-29T16:24:22;101029.79;;;27.24;32.32
51147;BME280;37207;53.060;18.726;2022-07-29T16:27:03;101033.46;;;27.11;32.36
51147;BME280;37207;53.060;18.726;2022-07-29T16:29:42;101038.11;;;26.99;32.36
51147;BME280;37207;53.060;18.726;2022-07-29T16:32:09;101037.13;;;26.83;32.60
51147;BME280;37207;53.060;18.726;2022-07-29T16:34:37;101037.91;;;26.64;33.12
51147;BME280;37207;53.060;18.726;2022-07-29T16:37:04;101041.64;;;26.47;33.44
51147;BME280;37207;53.060;18.726;2022-07-29T16:39:31;101043.11;;;26.33;33.98
51147;BME280;37207;53.060;18.726;2022-07-29T16:42:00;101038.59;;;26.21;34.22
51147;BME280;37207;53.060;18.726;2022-07-29T16:44:27;101034.39;;;26.08;34.56
51147;BME280;37207;53.060;18.726;2022-07-29T16:46:54;101042.02;;;26.01;34.74
51147;BME280;37207;53.060;18.726;2022-07-29T16:49:21;101045.81;;;25.93;35.03
51147;BME280;37207;53.060;18.726;2022-07-29T16:51:49;101041.32;;;25.90;35.07
51147;BME280;37207;53.060;18.726;2022-07-29T16:54:16;101038.09;;;25.89;35.15
51147;BME280;37207;53.060;18.726;2022-07-29T16:56:43;101041.08;;;25.92;35.15
51147;BME280;37207;53.060;18.726;2022-07-29T16:59:11;101045.37;;;25.96;35.51
51147;BME280;37207;53.060;18.726;2022-07-29T17:01:39;101046.59;;;26.00;35.38
51147;BME280;37207;53.060;18.726;2022-07-29T17:04:06;101040.57;;;26.02;34.93
51147;BME280;37207;53.060;18.726;2022-07-29T17:06:40;101039.81;;;26.01;34.61
51147;BME280;37207;53.060;18.726;2022-07-29T17:09:12;101041.77;;;25.97;34.15
51147;BME280;37207;53.060;18.726;2022-07-29T17:11:41;101040.48;;;25.95;33.88
51147;BME280;37207;53.060;18.726;2022-07-29T17:14:09;101039.59;;;25.93;33.88
51147;BME280;37207;53.060;18.726;2022-07-29T17:16:37;101035.88;;;25.91;33.96
51147;BME280;37207;53.060;18.726;2022-07-29T17:19:05;101038.73;;;25.85;33.93
51147;BME280;37207;53.060;18.726;2022-07-29T17:21:32;101039.39;;;25.75;34.06
51147;BME280;37207;53.060;18.726;2022-07-29T17:24:00;101036.52;;;25.70;34.17
51147;BME280;37207;53.060;18.726;2022-07-29T17:26:27;101036.13;;;25.64;34.11
51147;BME280;37207;53.060;18.726;2022-07-29T17:28:55;101036.84;;;25.60;34.13
51147;BME280;37207;53.060;18.726;2022-07-29T17:31:22;101036.96;;;25.56;34.31
51147;BME280;37207;53.060;18.726;2022-07-29T17:33:50;101035.66;;;25.49;34.73
51147;BME280;37207;53.060;18.726;2022-07-29T17:36:20;101033.92;;;25.43;35.16
51147;BME280;37207;53.060;18.726;2022-07-29T17:38:51;101037.08;;;25.36;35.48
51147;BME280;37207;53.060;18.726;2022-07-29T17:41:19;101036.25;;;25.24;35.85
51147;BME280;37207;53.060;18.726;2022-07-29T17:43:48;101036.05;;;25.15;36.07
51147;BME280;37207;53.060;18.726;2022-07-29T17:46:20;101044.24;;;25.00;36.48
51147;BME280;37207;53.060;18.726;2022-07-29T17:48:48;101045.02;;;24.84;37.04
51147;BME280;37207;53.060;18.726;2022-07-29T17:51:21;101052.92;;;24.67;37.60
51147;BME280;37207;53.060;18.726;2022-07-29T17:53:48;101051.61;;;24.54;37.91
51147;BME280;37207;53.060;18.726;2022-07-29T17:56:16;101052.70;;;24.40;38.22
51147;BME280;37207;53.060;18.726;2022-07-29T17:58:43;101054.34;;;24.26;38.55
51147;BME280;37207;53.060;18.726;2022-07-29T18:01:10;101050.28;;;24.11;38.95
51147;BME280;37207;53.060;18.726;2022-07-29T18:03:38;101045.56;;;23.97;39.32
51147;BME280;37207;53.060;18.726;2022-07-29T18:06:09;101041.94;;;23.80;39.57
51147;BME280;37207;53.060;18.726;2022-07-29T18:08:37;101046.11;;;23.64;39.72
51147;BME280;37207;53.060;18.726;2022-07-29T18:11:05;101047.77;;;23.48;40.08
51147;BME280;37207;53.060;18.726;2022-07-29T18:13:32;101045.67;;;23.36;40.58
51147;BME280;37207;53.060;18.726;2022-07-29T18:15:59;101042.63;;;23.25;40.66
51147;BME280;37207;53.060;18.726;2022-07-29T18:18:29;101044.62;;;23.13;40.95
51147;BME280;37207;53.060;18.726;2022-07-29T18:21:00;101046.68;;;23.03;41.09
51147;BME280;37207;53.060;18.726;2022-07-29T18:23:27;101047.91;;;22.92;41.47
51147;BME280;37207;53.060;18.726;2022-07-29T18:25:54;101049.16;;;22.81;41.62
51147;BME280;37207;53.060;18.726;2022-07-29T18:28:44;101045.98;;;22.72;41.88
51147;BME280;37207;53.060;18.726;2022-07-29T18:32:37;101042.55;;;22.60;42.23
51147;BME280;37207;53.060;18.726;2022-07-29T18:35:16;101044.26;;;22.46;42.56
51147;BME280;37207;53.060;18.726;2022-07-29T18:37:44;101045.55;;;22.33;42.79
51147;BME280;37207;53.060;18.726;2022-07-29T18:40:11;101045.46;;;22.21;43.06
51147;BME280;37207;53.060;18.726;2022-07-29T18:42:40;101043.74;;;22.10;43.22
51147;BME280;37207;53.060;18.726;2022-07-29T18:45:07;101051.31;;;21.97;43.48
51147;BME280;37207;53.060;18.726;2022-07-29T18:47:37;101049.59;;;21.83;43.74
51147;BME280;37207;53.060;18.726;2022-07-29T18:50:06;101051.46;;;21.71;43.86
51147;BME280;37207;53.060;18.726;2022-07-29T18:52:34;101053.52;;;21.62;44.14
51147;BME280;37207;53.060;18.726;2022-07-29T18:55:02;101055.64;;;21.51;44.28
51147;BME280;37207;53.060;18.726;2022-07-29T18:57:30;101054.76;;;21.42;44.53
51147;BME280;37207;53.060;18.726;2022-07-29T18:59:58;101052.63;;;21.35;44.66
51147;BME280;37207;53.060;18.726;2022-07-29T19:02:26;101052.81;;;21.27;44.77
51147;BME280;37207;53.060;18.726;2022-07-29T19:04:56;101057.89;;;21.19;44.86
51147;BME280;37207;53.060;18.726;2022-07-29T19:07:24;101059.30;;;21.09;45.09
51147;BME280;37207;53.060;18.726;2022-07-29T19:09:52;101061.69;;;21.01;45.22
51147;BME280;37207;53.060;18.726;2022-07-29T19:12:21;101060.79;;;20.92;45.43
51147;BME280;37207;53.060;18.726;2022-07-29T19:14:48;101063.13;;;20.83;45.66
51147;BME280;37207;53.060;18.726;2022-07-29T19:17:15;101062.09;;;20.75;45.72
51147;BME280;37207;53.060;18.726;2022-07-29T19:19:43;101061.02;;;20.67;45.89
51147;BME280;37207;53.060;18.726;2022-07-29T19:22:11;101063.53;;;20.60;46.05
51147;BME280;37207;53.060;18.726;2022-07-29T19:24:39;101063.86;;;20.52;46.17
51147;BME280;37207;53.060;18.726;2022-07-29T19:27:08;101063.96;;;20.45;46.39
51147;BME280;37207;53.060;18.726;2022-07-29T19:29:38;101068.09;;;20.39;46.53
51147;BME280;37207;53.060;18.726;2022-07-29T19:32:06;101070.62;;;20.31;46.70
51147;BME280;37207;53.060;18.726;2022-07-29T19:34:35;101072.95;;;20.23;46.87
51147;BME280;37207;53.060;18.726;2022-07-29T19:37:03;101074.18;;;20.14;47.00
51147;BME280;37207;53.060;18.726;2022-07-29T19:39:31;101076.70;;;20.09;47.27
51147;BME280;37207;53.060;18.726;2022-07-29T19:42:03;101075.23;;;20.04;47.44
51147;BME280;37207;53.060;18.726;2022-07-29T19:44:31;101072.83;;;19.99;47.50
51147;BME280;37207;53.060;18.726;2022-07-29T19:46:59;101078.20;;;19.93;47.66
51147;BME280;37207;53.060;18.726;2022-07-29T19:49:29;101075.88;;;19.87;47.82
51147;BME280;37207;53.060;18.726;2022-07-29T19:52:03;101075.59;;;19.80;47.94
51147;BME280;37207;53.060;18.726;2022-07-29T19:54:31;101073.98;;;19.74;48.08
51147;BME280;37207;53.060;18.726;2022-07-29T19:57:00;101078.48;;;19.67;48.26
51147;BME280;37207;53.060;18.726;2022-07-29T19:59:28;101082.06;;;19.63;48.38
51147;BME280;37207;53.060;18.726;2022-07-29T20:01:58;101079.80;;;19.59;48.47
51147;BME280;37207;53.060;18.726;2022-07-29T20:04:27;101080.73;;;19.54;48.62
51147;BME280;37207;53.060;18.726;2022-07-29T20:06:55;101083.08;;;19.50;48.75
51147;BME280;37207;53.060;18.726;2022-07-29T20:09:26;101084.77;;;19.48;48.87
51147;BME280;37207;53.060;18.726;2022-07-29T20:11:54;101081.33;;;19.46;48.94
51147;BME280;37207;53.060;18.726;2022-07-29T20:14:27;101086.42;;;19.43;49.03
51147;BME280;37207;53.060;18.726;2022-07-29T20:16:57;101086.41;;;19.40;49.18
51147;BME280;37207;53.060;18.726;2022-07-29T20:19:25;101088.31;;;19.38;49.20
51147;BME280;37207;53.060;18.726;2022-07-29T20:21:53;101086.68;;;19.35;49.29
51147;BME280;37207;53.060;18.726;2022-07-29T20:24:21;101086.84;;;19.31;49.42
51147;BME280;37207;53.060;18.726;2022-07-29T20:26:49;101086.62;;;19.29;49.55
51147;BME280;37207;53.060;18.726;2022-07-29T20:29:17;101090.31;;;19.27;49.50
51147;BME280;37207;53.060;18.726;2022-07-29T20:31:45;101088.33;;;19.24;49.55
51147;BME280;37207;53.060;18.726;2022-07-29T20:34:14;101095.05;;;19.21;49.61
51147;BME280;37207;53.060;18.726;2022-07-29T20:36:43;101095.10;;;19.15;49.61
51147;BME280;37207;53.060;18.726;2022-07-29T20:39:11;101099.34;;;19.10;49.64
51147;BME280;37207;53.060;18.726;2022-07-29T20:41:39;101101.80;;;19.04;49.75
51147;BME280;37207;53.060;18.726;2022-07-29T20:44:06;101107.43;;;18.99;49.95
51147;BME280;37207;53.060;18.726;2022-07-29T20:46:35;101102.60;;;18.95;50.03
51147;BME280;37207;53.060;18.726;2022-07-29T20:49:02;101101.17;;;18.91;50.30
51147;BME280;37207;53.060;18.726;2022-07-29T20:51:31;101097.75;;;18.86;50.32
51147;BME280;37207;53.060;18.726;2022-07-29T20:54:20;101096.10;;;18.80;50.31
51147;BME280;37207;53.060;18.726;2022-07-29T20:57:48;101094.66;;;18.71;50.68
51147;BME280;37207;53.060;18.726;2022-07-29T21:00:16;101094.59;;;18.65;50.70
51147;BME280;37207;53.060;18.726;2022-07-29T21:02:44;101097.54;;;18.60;51.01
51147;BME280;37207;53.060;18.726;2022-07-29T21:05:15;101095.48;;;18.57;51.14
51147;BME280;37207;53.060;18.726;2022-07-29T21:07:44;101092.80;;;18.53;51.24
51147;BME280;37207;53.060;18.726;2022-07-29T21:10:11;101095.27;;;18.48;51.35
51147;BME280;37207;53.060;18.726;2022-07-29T21:12:39;101095.77;;;18.43;51.44
51147;BME280;37207;53.060;18.726;2022-07-29T21:15:08;101093.83;;;18.40;51.61
51147;BME280;37207;53.060;18.726;2022-07-29T21:17:39;101089.23;;;18.36;51.74
51147;BME280;37207;53.060;18.726;2022-07-29T21:20:14;101087.95;;;18.32;51.83
51147;BME280;37207;53.060;18.726;2022-07-29T21:22:41;101087.35;;;18.26;52.11
51147;BME280;37207;53.060;18.726;2022-07-29T21:25:09;101086.25;;;18.20;52.23
51147;BME280;37207;53.060;18.726;2022-07-29T21:27:39;101087.12;;;18.12;52.37
51147;BME280;37207;53.060;18.726;2022-07-29T21:30:26;101086.27;;;18.06;52.67
51147;BME280;37207;53.060;18.726;2022-07-29T21:32:57;101087.56;;;18.00;52.82
51147;BME280;37207;53.060;18.726;2022-07-29T21:35:24;101083.67;;;17.93;52.93
51147;BME280;37207;53.060;18.726;2022-07-29T21:37:52;101082.90;;;17.89;53.07
51147;BME280;37207;53.060;18.726;2022-07-29T21:40:26;101084.05;;;17.86;53.24
51147;BME280;37207;53.060;18.726;2022-07-29T21:42:54;101083.73;;;17.80;53.44
51147;BME280;37207;53.060;18.726;2022-07-29T21:45:42;101085.67;;;17.73;53.65
51147;BME280;37207;53.060;18.726;2022-07-29T21:48:12;101078.89;;;17.66;53.75
51147;BME280;37207;53.060;18.726;2022-07-29T21:50:42;101078.06;;;17.59;53.97
51147;BME280;37207;53.060;18.726;2022-07-29T21:53:12;101078.36;;;17.54;54.14
51147;BME280;37207;53.060;18.726;2022-07-29T21:56:15;101082.85;;;17.49;54.52
51147;BME280;37207;53.060;18.726;2022-07-29T21:58:42;101083.10;;;17.43;54.56
51147;BME280;37207;53.060;18.726;2022-07-29T22:01:09;101083.14;;;17.38;54.86
51147;BME280;37207;53.060;18.726;2022-07-29T22:03:36;101085.06;;;17.32;55.04